• Join FlightAware (Why Join?)
  • Login
  • US Flag 
11:25PM EDT


 

Airport Tracker/Info


-or-


 

Live Flight TrackerFlight Track Log ✈ N1944E ✈ 19-Aug-2013 ✈ KJAC - KSLC

Flight Track Log - Related Links

Times and Time Zones

All times are in EDT time to prevent confusion due to time zone crossing. See the N1944E flight status page for this flight to view local times or setup timezone preferences in your user account.

Time Position Orientation Groundspeed Altitude Reporting Facility
EDT Latitude Longitude Course Direction KTS MPH feet Rate Location/Type
10:33AM 43.6353 -110.7278 100° East 118 136 7,100  Level Salt Lake Center
10:34AM 43.6717 -110.7081 21° North 136 157 7,800 600 Climbing Salt Lake Center
10:35AM 43.7028 -110.6703 41° Northeast 151 174 8,400 660 Climbing Salt Lake Center
10:37AM 43.7431 -110.6381 30° Northeast 162 186 9,200 720 Climbing Salt Lake Center
10:38AM 43.8495 -110.5337 29° Northeast  Level FlightAware Approximate
10:38AM 43.7789 -110.6011 37° Northeast 161 185 10,000  Level Salt Lake Center
10:39AM 43.8418 -110.4673 100° East  Level FlightAware Approximate
10:39AM 43.8181 -110.5714 29° Northeast 161 185 10,800  Level Salt Lake Center
10:40AM 43.8542 -110.5219 45° Northeast 168 193 11,500 660 Climbing Salt Lake Center
10:41AM 43.8489 -110.4544 96° East 176 203 12,200 540 Climbing Salt Lake Center
10:42AM 43.8044 -110.4500 176° South 172 198 12,700 720 Climbing Salt Lake Center
10:43AM 43.7714 -110.4831 216° Southwest 150 173 13,800 1,020 Climbing Salt Lake Center
10:44AM 43.7439 -110.5133 219° Southwest 134 154 14,900 900 Climbing Salt Lake Center
10:45AM 43.7133 -110.5369 209° Southwest 126 145 15,700 480 Climbing Salt Lake Center
10:46AM 43.6789 -110.5633 209° Southwest 135 155 16,000 120 Climbing Salt Lake Center
10:47AM 43.6294 -110.6028 210° Southwest 164 189 16,000  Level Salt Lake Center
10:48AM 43.5875 -110.6358 210° Southwest 171 197 16,000  Level Salt Lake Center
10:49AM 43.5464 -110.6697 211° Southwest 169 194 16,000 -60 Level Salt Lake Center
10:50AM 43.5042 -110.7014 209° Southwest 169 194 15,900 -60 Descending Salt Lake Center
10:51AM 43.4644 -110.7339 211° Southwest 166 191 15,900  Level Salt Lake Center
10:52AM 43.4239 -110.7661 210° Southwest 167 192 15,900  Level Salt Lake Center
10:53AM 43.3825 -110.7975 209° Southwest 168 193 16,000  Climbing Salt Lake Center
10:54AM 43.3403 -110.8314 210° Southwest 175 201 16,000  Level Salt Lake Center
10:55AM 43.2981 -110.8672 212° Southwest 178 205 16,000  Level Salt Lake Center
10:56AM 43.2456 -110.9067 209° Southwest 180 207 16,000  Level Salt Lake Center
10:57AM 43.2028 -110.9383 208° Southwest 176 203 16,000  Level Salt Lake Center
10:58AM 43.1617 -110.9711 210° Southwest 173 199 16,000  Level Salt Lake Center
10:59AM 43.1203 -111.0039 210° Southwest 171 197 16,000  Level Salt Lake Center
11:00AM 43.0797 -111.0408 214° Southwest 174 200 16,000  Level Salt Lake Center
11:01AM 43.0392 -111.0786 214° Southwest 176 203 16,000  Level Salt Lake Center
11:02AM 42.9889 -111.1211 212° Southwest 176 203 16,100 -60 Climbing Salt Lake Center
11:03AM 42.9469 -111.1556 211° Southwest 177 204 15,900 -120 Descending Salt Lake Center
11:04AM 42.9036 -111.1867 208° Southwest 175 201 15,900  Level Salt Lake Center
11:05AM 42.8594 -111.2183 208° Southwest 178 205 15,900  Level Salt Lake Center
11:07AM 42.8164 -111.2494 208° Southwest 176 203 15,900  Level Salt Lake Center
11:08AM 42.7725 -111.2806 207° Southwest 177 204 15,900  Level Salt Lake Center
11:09AM 42.7194 -111.3214 209° Southwest 180 207 15,900  Level Salt Lake Center
11:10AM 42.6786 -111.3519 209° Southwest 187 215 15,900  Level Salt Lake Center
11:11AM 42.6350 -111.3869 211° Southwest 183 211 15,900  Level Salt Lake Center
11:12AM 42.5833 -111.4283 211° Southwest 180 207 15,900  Level Salt Lake Center
11:13AM 42.5383 -111.4653 211° Southwest 186 214 15,900  Level Salt Lake Center
11:14AM 42.4958 -111.4967 209° Southwest 179 206 15,900  Level Salt Lake Center
11:15AM 42.4506 -111.5311 209° Southwest 185 213 15,900  Level Salt Lake Center
11:16AM 42.4064 -111.5664 211° Southwest 185 213 15,900  Level Salt Lake Center
11:17AM 42.3539 -111.6044 208° Southwest 180 207 16,000  Climbing Salt Lake Center
11:18AM 42.3094 -111.6356 207° Southwest 180 207 16,000  Level Salt Lake Center
11:19AM 42.2639 -111.6700 209° Southwest 186 214 16,000  Level Salt Lake Center
11:20AM 42.2208 -111.7031 210° Southwest 180 207 16,000 -60 Level Salt Lake Center
11:21AM 42.1731 -111.7303 203° Southwest 186 214 15,900  Descending Salt Lake Center
11:22AM 42.1231 -111.7531 199° South 189 217 16,000 -420 Climbing Salt Lake Center
11:23AM 42.0606 -111.7825 199° South 199 229 15,100 -780 Descending Salt Lake Center
11:24AM 42.0031 -111.8067 197° South 215 247 14,500 -600 Descending Salt Lake Center
11:25AM 41.9461 -111.8286 196° South 213 245 13,900 -780 Descending Salt Lake Center
11:26AM 41.8886 -111.8489 195° South 214 246 13,000 -900 Descending Salt Lake Center
11:27AM 41.8283 -111.8711 195° South 224 258 12,100 -540 Descending Salt Lake Center
11:28AM 41.7725 -111.8919 196° South 216 249 12,000 -60 Descending Salt Lake Center
11:29AM 41.7142 -111.9144 196° South 188 216 12,000  Level Salt Lake Center
11:30AM 41.6900 -111.9161 183° South 188 216 12,000  Level Salt Lake Center
11:30AM 41.6639 -111.9336 207° Southwest 189 217 12,000  Level Salt Lake Center
11:31AM 41.6150 -111.9533 197° South 186 214 12,000  Level Salt Lake Center
11:32AM 41.5658 -111.9731 197° South 186 214 12,000  Level Salt Lake Center
11:33AM 41.5158 -111.9944 198° South 188 216 12,000  Level Salt Lake Center
11:35AM 41.4522 -111.9894 177° South 190 219 12,000  Level Salt Lake Center
11:35AM 41.4053 -111.9797 171° South 187 215 12,000  Level Salt Lake Center
11:36AM 41.3542 -111.9717 173° South 186 214 12,000 -180 Level Salt Lake Center
11:38AM 41.3011 -111.9686 178° South 187 215 11,700 -480 Descending Salt Lake Center
11:39AM 41.2428 -111.9661 178° South 209 241 11,000 -360 Descending Salt Lake Center
11:40AM 41.1900 -111.9642 178° South 192 221 11,000 -240 Level Salt Lake Center
11:41AM 41.1353 -111.9636 180° South 166 191 10,600 -660 Descending Salt Lake Center
11:42AM 41.0894 -111.9644 181° South 166 191 9,700 -900 Descending Salt Lake Center
11:43AM 41.0447 -111.9636 179° South 166 191 8,800 -900 Descending Salt Lake Center
11:44AM 40.9975 -111.9653 182° South 159 183 8,000 -840 Descending Salt Lake Center
11:45AM 40.9547 -111.9658 181° South 156 180 7,100 -840 Descending Salt Lake Center
11:46AM 40.9131 -111.9628 177° South 153 176 6,400 -660 Descending Salt Lake Center
11:47AM 40.8703 -111.9633 181° South 138 159 5,700 -660 Descending Salt Lake Center
11:48AM 40.8358 -111.9636 180° South 118 136 5,000 -600 Descending Salt Lake Center
11:49AM 40.8075 -111.9619 177° South 110 127 4,500 -540 Descending Salt Lake Center
11:51AM 40.7833 -111.9667 159° South  Level FlightAware Approximate